Capitol Logistics 423


MZBZ
Philip S.W. Goldson International Airport
Belize City, BZ
KMIA
Miami International Airport
Miami, US

Activity Log

Date Flight Route Aircraft Duration
09/30/2019 CPX423 FRANT UG765 MAXIM EADEN CURSO5 B752 1h 49m
09/25/2019 CPX423 FRANT UG765 MAXIM EADEN CURSO5 B752 1h 51m
08/24/2019 CPX423 BZE B764 ANEPU UB764 CZM UG765 MAXIM EYW DVALL3 B752 1h 58m
06/18/2019 CPX423 FRANT UG765 MAXIM EADEN CURSO5 B752 1h 51m
06/15/2019 CPX423 FRANT UG765 MAXIM EADEN CURSO5 B752 1h 53m
04/02/2019 CPX423 FRANT UG765 MAXIM EADEN CURSO5 B752 1h 55m
03/03/2019 CPX423 ULEVA UR899 CTM UG765 MAXIM EADEN CURSO5 B752 1h 52m
02/28/2019 CPX423 FRANT UG765 MAXIM EADEN CURSO5 B752 1h 32m
12/10/2018 CPX725 FRANT UG765 MAXIM EADEN CURSO5 B752 1h 34m
12/03/2018 CPX725 FRANT UG765 MAXIM EADEN CURSO5 B752 1h 46m

Route Details

Aircraft Information
Primary: Boeing 757-200SF
Backup: Not Available
Route Data
Distance: 704nm
Sched. Duration: 1h 44m
Avg. Duration: 1h 48m (+3m)
Times Flown: 10
Recm'd Route: FRANT UG765 MAXIM EADEN CURSO5
Planned Altitude: 35,000ft
Origin Wx: MZBZ 271600Z 32009KT 9999 BKN023 BKN040 21/19 A3021 Q1023 NOSIG
Dest. Wx: KMIA 271653Z 33010G18KT 300V360 10SM FEW030 SCT140 BKN160 BKN180 19/07 A3017 RMK AO2 SLP214 T01890067
Notes:

Financial History
Total Freight: 498,062lbs
Average Load: 49,806lbs/flt
Fuel Used: 138,009lbs
Avg. Fuel Used: 13,801lbs/flt
Fuel Expense: $118,688
Avg. Fuel Expense: $11,869
Avg. Fuel Cost: $0.86/lbs
Total Gross Income: $801,879
Pilot Pay: $1,410
Total Expenses: $87,123
Total Revenue: $592,281
Average Revenue: $80,187.95